»·PEaware :: N47881 KPSP-KBLH

N47881 :: KPSP-KBLH

FLIGHT INFORMATION

Flight Status: Arrived
Operator: Privately registered:
United States
More flights under this callsign
Pilot: Christopher N. (25363)
Aircraft: CESSNA 172 SKYHAWK
(C172)
More flights by this aircraft type
Origin: KPSP Palm Springs Intl
United States
Destination: KBLH Blythe
United States
More flights between these airports :: More routes between these airports
Route: TRM6 TRM V64 BLH SODSE
File this flight plan on PilotEdge
Remarks:
Altitude:
(Current/Filed)
7,000ft
Speed:
(Current/Filed)
115kts
Departed: 01-Jan-21 07:28 PM
Arrived: 01-Jan-21 08:38 PM
Distance/Time
Traveled:
90nm/1:10
Distance/Time
To Go:
Arrived

Flight Plot

Page will automatically refresh every two minutes.

Flight plan parsing failed; only flown route is shown


Map Options




Map Legend


Flown Route
Filed Route
Departure Airport
Arrival Airport
Navaid (VOR, NDB)
Fix

Horizontal Profiles

Position Reports

Time Latitude Longitude Heading Altitude Ground
Speed
01-Jan-21 19:08 33.822023 -116.496278 323 393ft 0kts
01-Jan-21 19:09 33.822023 -116.496278 323 393ft 0kts
01-Jan-21 19:10 33.822023 -116.496278 323 393ft 0kts
01-Jan-21 19:11 33.822023 -116.496278 323 393ft 0kts
01-Jan-21 19:12 33.822023 -116.496278 323 393ft 0kts
01-Jan-21 19:13 33.822023 -116.496278 323 393ft 0kts
01-Jan-21 19:14 33.822023 -116.496278 323 393ft 0kts
01-Jan-21 19:15 33.822023 -116.496278 323 393ft 0kts
01-Jan-21 19:16 33.821847 -116.496538 157 394ft 4kts
01-Jan-21 19:17 33.820051 -116.495750 229 389ft 7kts
01-Jan-21 19:18 33.819339 -116.496901 233 391ft 0kts
01-Jan-21 19:19 33.819339 -116.496901 233 391ft 0kts
01-Jan-21 19:20 33.819339 -116.496901 233 391ft 0kts
01-Jan-21 19:21 33.819339 -116.496901 233 391ft 0kts
01-Jan-21 19:22 33.819339 -116.496901 233 391ft 0kts
01-Jan-21 19:23 33.819339 -116.496901 233 391ft 0kts
01-Jan-21 19:24 33.819339 -116.496901 233 391ft 0kts
01-Jan-21 19:25 33.819339 -116.496901 233 391ft 0kts
01-Jan-21 19:26 33.819064 -116.498211 315 394ft 10kts
01-Jan-21 19:27 33.833208 -116.509293 331 715ft 95kts
01-Jan-21 19:28 33.846167 -116.496815 103 1626ft 86kts
01-Jan-21 19:29 33.841043 -116.467327 103 2423ft 90kts
01-Jan-21 19:30 33.834452 -116.437829 104 3180ft 92kts
01-Jan-21 19:31 33.828108 -116.407830 103 3897ft 93kts
01-Jan-21 19:32 33.815279 -116.381442 134 4550ft 96kts
01-Jan-21 19:33 33.797254 -116.358057 132 5186ft 96kts
01-Jan-21 19:34 33.778630 -116.335187 139 5773ft 96kts
01-Jan-21 19:35 33.759541 -116.312667 134 6321ft 97kts
01-Jan-21 19:36 33.739974 -116.290136 136 6832ft 97kts
01-Jan-21 19:37 33.719498 -116.265411 135 6989ft 111kts
01-Jan-21 19:38 33.696694 -116.238866 136 7065ft 113kts
01-Jan-21 19:39 33.673708 -116.211732 134 7039ft 117kts
01-Jan-21 19:40 33.649691 -116.185091 136 7001ft 117kts
01-Jan-21 19:41 33.629251 -116.155016 94 6972ft 118kts
01-Jan-21 19:42 33.628582 -116.116791 91 7029ft 116kts
01-Jan-21 19:43 33.626976 -116.077929 93 6999ft 119kts
01-Jan-21 19:45 33.626278 -116.038791 93 7004ft 117kts
01-Jan-21 19:46 33.624957 -115.999985 94 7026ft 115kts
01-Jan-21 19:47 33.624265 -115.961136 90 7014ft 117kts
01-Jan-21 19:48 33.623807 -115.922085 93 7006ft 117kts
01-Jan-21 19:49 33.622284 -115.883035 92 7002ft 117kts
01-Jan-21 19:50 33.621399 -115.844023 92 6995ft 117kts
01-Jan-21 19:51 33.620292 -115.804980 95 6985ft 117kts
01-Jan-21 19:52 33.619267 -115.766048 91 6984ft 116kts
01-Jan-21 19:53 33.618219 -115.726979 91 6982ft 116kts
01-Jan-21 19:54 33.617202 -115.687979 91 6979ft 116kts
01-Jan-21 19:55 33.616835 -115.649358 92 7012ft 115kts
01-Jan-21 19:56 33.616886 -115.610772 91 7016ft 117kts
01-Jan-21 19:57 33.615498 -115.571475 90 6984ft 118kts
01-Jan-21 19:58 33.614758 -115.532207 93 6967ft 118kts
01-Jan-21 19:58 33.613971 -115.500025 90 7009ft 115kts
01-Jan-21 20:00 33.612778 -115.454795 93 7017ft 116kts
01-Jan-21 20:00 33.611841 -115.422574 91 7026ft 116kts
01-Jan-21 20:02 33.610865 -115.376782 91 6996ft 117kts
01-Jan-21 20:02 33.610486 -115.344003 90 6979ft 117kts
01-Jan-21 20:03 33.609494 -115.304777 93 6968ft 117kts
01-Jan-21 20:05 33.606527 -115.259556 92 6983ft 116kts
01-Jan-21 20:06 33.605158 -115.220064 91 6984ft 115kts
01-Jan-21 20:06 33.603461 -115.187840 94 6494ft 115kts
01-Jan-21 20:07 33.601024 -115.149125 95 5997ft 116kts
01-Jan-21 20:08 33.600344 -115.110053 87 5961ft 114kts
01-Jan-21 20:09 33.599792 -115.071787 90 5961ft 112kts
01-Jan-21 20:10 33.598412 -115.033213 90 6044ft 113kts
01-Jan-21 20:11 33.597188 -114.993434 90 6027ft 118kts
01-Jan-21 20:12 33.594763 -114.953759 94 5975ft 120kts
01-Jan-21 20:13 33.593554 -114.912809 90 5972ft 120kts
01-Jan-21 20:14 33.592321 -114.872104 92 5988ft 120kts
01-Jan-21 20:15 33.590176 -114.832108 93 5992ft 119kts
01-Jan-21 20:16 33.587676 -114.792146 92 5993ft 120kts
01-Jan-21 20:17 33.585614 -114.752068 92 6006ft 120kts
01-Jan-21 20:18 33.584452 -114.712065 92 6017ft 120kts
01-Jan-21 20:19 33.582400 -114.671765 93 6008ft 121kts
01-Jan-21 20:20 33.580897 -114.631089 91 6012ft 121kts
01-Jan-21 20:21 33.579431 -114.589293 92 6013ft 120kts
01-Jan-21 20:22 33.577374 -114.548526 94 6011ft 120kts
01-Jan-21 20:23 33.575724 -114.507086 93 6011ft 120kts
01-Jan-21 20:24 33.573810 -114.466092 92 6013ft 120kts
01-Jan-21 20:25 33.571752 -114.424287 94 6014ft 120kts
01-Jan-21 20:26 33.595452 -114.417546 315 5412ft 117kts
01-Jan-21 20:27 33.618512 -114.445083 312 4649ft 116kts
01-Jan-21 20:28 33.642880 -114.470501 323 3875ft 115kts
01-Jan-21 20:29 33.644971 -114.503704 263 3744ft 91kts
01-Jan-21 20:30 33.643812 -114.535142 258 3324ft 92kts
01-Jan-21 20:31 33.638542 -114.565849 263 2831ft 94kts
01-Jan-21 20:32 33.633489 -114.596501 260 2275ft 93kts
01-Jan-21 20:33 33.628210 -114.626972 257 1752ft 92kts
01-Jan-21 20:34 33.623118 -114.657154 257 1251ft 92kts
01-Jan-21 20:35 33.618844 -114.685467 255 802ft 78kts
01-Jan-21 20:36 33.616653 -114.709558 271 394ft 47kts
01-Jan-21 20:37 33.615794 -114.715177 179 394ft 0kts

Navigation Log

Ident Type
Flight plan parsing failed, navigation log unavailable